createdAt,value
2016-09-13T00:00:30.078Z,0
2016-09-13T00:01:30.103Z,0
2016-09-13T00:02:30.251Z,0
2016-09-13T00:03:30.048Z,0
2016-09-13T00:04:30.086Z,0
2016-09-13T00:05:30.092Z,0
2016-09-13T00:06:30.081Z,0
2016-09-13T00:07:30.061Z,0
2016-09-13T00:08:30.077Z,0
2016-09-13T00:09:30.256Z,0
2016-09-13T00:10:30.056Z,0
2016-09-13T00:11:30.053Z,0
2016-09-13T00:12:30.111Z,0
2016-09-13T00:13:30.343Z,0
2016-09-13T00:14:30.135Z,0
2016-09-13T00:15:30.145Z,0
2016-09-13T00:16:30.632Z,0
2016-09-13T00:17:30.228Z,0
2016-09-13T00:18:30.068Z,0
2016-09-13T00:19:30.128Z,0
2016-09-13T00:20:30.411Z,0
2016-09-13T00:21:30.105Z,0
2016-09-13T00:22:30.109Z,0
2016-09-13T00:23:30.154Z,0
2016-09-13T00:24:30.110Z,0
2016-09-13T00:25:30.108Z,0
2016-09-13T00:26:30.028Z,0
2016-09-13T00:27:30.105Z,0
2016-09-13T00:28:30.054Z,0
2016-09-13T00:29:30.080Z,0
2016-09-13T00:30:30.069Z,0
2016-09-13T00:31:30.073Z,0
2016-09-13T00:32:30.051Z,0
2016-09-13T00:33:30.584Z,0
2016-09-13T00:34:30.062Z,0
2016-09-13T00:35:30.040Z,0
2016-09-13T00:36:30.094Z,0
2016-09-13T00:37:30.053Z,0
2016-09-13T00:38:30.045Z,0
2016-09-13T00:39:30.229Z,0
2016-09-13T00:40:30.042Z,0
2016-09-13T00:41:30.241Z,0
2016-09-13T00:42:30.042Z,0
2016-09-13T00:43:30.050Z,0
2016-09-13T00:44:30.067Z,0
2016-09-13T00:45:30.060Z,0
2016-09-13T00:46:30.076Z,0
2016-09-13T00:47:30.048Z,0
2016-09-13T00:48:30.093Z,0
2016-09-13T00:49:30.075Z,0
2016-09-13T00:50:30.195Z,0
2016-09-13T00:51:30.096Z,0
2016-09-13T00:52:30.113Z,0
2016-09-13T00:53:30.125Z,0
2016-09-13T00:54:30.104Z,0
2016-09-13T00:55:30.068Z,0
2016-09-13T00:56:30.073Z,0
2016-09-13T00:57:30.065Z,0
2016-09-13T00:58:30.115Z,0
2016-09-13T00:59:30.102Z,0
2016-09-13T01:00:30.084Z,0
2016-09-13T01:01:30.100Z,0
2016-09-13T01:02:30.064Z,0
2016-09-13T01:03:30.065Z,0
2016-09-13T01:04:30.158Z,0
2016-09-13T01:05:30.068Z,0
2016-09-13T01:06:30.144Z,0
2016-09-13T01:07:30.106Z,0
2016-09-13T01:08:30.236Z,0
2016-09-13T01:09:30.071Z,0
2016-09-13T01:10:30.048Z,0
2016-09-13T01:11:30.112Z,0
2016-09-13T01:12:30.084Z,0
2016-09-13T01:13:30.087Z,0
2016-09-13T01:14:30.091Z,0
2016-09-13T01:15:30.083Z,0
2016-09-13T01:16:30.128Z,0
2016-09-13T01:17:30.093Z,0
2016-09-13T01:18:30.152Z,0
2016-09-13T01:19:30.078Z,0
2016-09-13T01:20:30.123Z,0
2016-09-13T01:21:30.121Z,0
2016-09-13T01:22:30.120Z,0
2016-09-13T01:23:30.106Z,0
2016-09-13T01:24:30.085Z,0
2016-09-13T01:25:30.100Z,0
2016-09-13T01:26:30.085Z,0
2016-09-13T01:27:30.106Z,0
2016-09-13T01:28:30.103Z,0
2016-09-13T01:29:30.089Z,0
2016-09-13T01:30:30.153Z,0
2016-09-13T01:31:30.133Z,0
2016-09-13T01:32:30.182Z,0
2016-09-13T01:33:30.145Z,0
2016-09-13T01:34:30.153Z,0
2016-09-13T01:35:30.152Z,0
2016-09-13T01:36:30.147Z,0
2016-09-13T01:37:30.154Z,0
2016-09-13T01:38:30.146Z,0
2016-09-13T01:39:30.207Z,0
2016-09-13T01:40:30.144Z,0
2016-09-13T01:41:30.134Z,0
2016-09-13T01:42:30.154Z,0
2016-09-13T01:43:30.146Z,0
2016-09-13T01:44:30.151Z,0
2016-09-13T01:45:30.112Z,0
2016-09-13T01:46:30.134Z,0
2016-09-13T01:47:30.115Z,0
2016-09-13T01:48:30.132Z,0
2016-09-13T01:49:30.133Z,0
2016-09-13T01:50:30.118Z,0
2016-09-13T01:51:30.142Z,0
2016-09-13T01:52:30.125Z,0
2016-09-13T01:53:30.173Z,0
2016-09-13T01:54:30.135Z,0
2016-09-13T01:55:30.118Z,0
2016-09-13T01:56:30.135Z,0
2016-09-13T01:57:30.102Z,0
2016-09-13T01:58:30.132Z,0
2016-09-13T01:59:30.135Z,0
2016-09-13T02:00:30.206Z,0
2016-09-13T02:01:30.129Z,0
2016-09-13T02:02:30.173Z,0
2016-09-13T02:03:30.129Z,0
2016-09-13T02:04:30.160Z,0
2016-09-13T02:05:30.132Z,0
2016-09-13T02:06:30.158Z,0
2016-09-13T02:07:30.163Z,0
2016-09-13T02:08:30.902Z,0
2016-09-13T02:09:30.172Z,0
2016-09-13T02:10:30.157Z,0
2016-09-13T02:11:30.195Z,0
2016-09-13T02:12:30.149Z,0
2016-09-13T02:13:30.260Z,0
2016-09-13T02:14:30.165Z,0
2016-09-13T02:15:30.151Z,0
2016-09-13T02:16:30.247Z,0
2016-09-13T02:17:30.130Z,0
2016-09-13T02:18:30.211Z,0
2016-09-13T02:19:30.151Z,0
2016-09-13T02:20:30.147Z,0
2016-09-13T02:21:30.142Z,0
2016-09-13T02:22:30.135Z,0
2016-09-13T02:23:30.152Z,0
2016-09-13T02:24:30.171Z,0
2016-09-13T02:25:30.161Z,0
2016-09-13T02:26:30.139Z,0
2016-09-13T02:27:30.145Z,0
2016-09-13T02:28:30.225Z,0
2016-09-13T02:29:30.158Z,0
2016-09-13T02:30:30.233Z,0
2016-09-13T02:31:30.148Z,0
2016-09-13T02:32:30.180Z,0
2016-09-13T02:33:30.151Z,0
2016-09-13T02:34:30.167Z,0
2016-09-13T02:35:30.145Z,0
2016-09-13T02:36:30.144Z,0
2016-09-13T02:37:30.213Z,0
2016-09-13T02:38:30.167Z,0
2016-09-13T02:39:30.162Z,0
2016-09-13T02:40:30.219Z,0
2016-09-13T02:41:30.263Z,0
2016-09-13T02:42:30.157Z,0
2016-09-13T02:43:30.149Z,0
2016-09-13T02:44:30.206Z,0
2016-09-13T02:45:30.155Z,0
2016-09-13T02:46:30.153Z,0
2016-09-13T02:47:30.183Z,0
2016-09-13T02:48:30.184Z,0
2016-09-13T02:49:30.281Z,0
2016-09-13T02:50:30.185Z,0
2016-09-13T02:51:30.192Z,0
2016-09-13T02:52:30.194Z,0
2016-09-13T02:53:30.226Z,0
2016-09-13T02:54:30.201Z,0
2016-09-13T02:55:30.163Z,0
2016-09-13T02:56:30.208Z,0
2016-09-13T02:57:30.208Z,0
2016-09-13T02:58:30.281Z,0
2016-09-13T02:59:30.232Z,0
2016-09-13T03:00:30.202Z,0
2016-09-13T03:01:30.251Z,0
2016-09-13T03:02:30.222Z,0
2016-09-13T03:03:30.190Z,0
2016-09-13T03:04:30.224Z,0
2016-09-13T03:05:30.217Z,0
2016-09-13T03:06:30.197Z,0
2016-09-13T03:07:30.758Z,0
2016-09-13T03:08:30.210Z,0
2016-09-13T03:09:30.217Z,0
2016-09-13T03:10:30.189Z,0
2016-09-13T03:11:30.212Z,0
2016-09-13T03:12:30.203Z,0
2016-09-13T03:13:30.166Z,0
2016-09-13T03:14:30.201Z,0
2016-09-13T03:15:30.191Z,0
2016-09-13T03:16:30.184Z,0
2016-09-13T03:17:30.211Z,0
2016-09-13T03:18:30.204Z,0
2016-09-13T03:19:30.249Z,0
2016-09-13T03:20:30.185Z,0
2016-09-13T03:21:30.222Z,0
2016-09-13T03:22:30.215Z,0
2016-09-13T03:23:30.201Z,0
2016-09-13T03:24:30.193Z,0
2016-09-13T03:25:30.203Z,0
2016-09-13T03:26:30.212Z,0
2016-09-13T03:27:30.242Z,0
2016-09-13T03:28:30.283Z,0
2016-09-13T03:29:30.219Z,0
2016-09-13T03:30:30.220Z,0
2016-09-13T03:31:30.243Z,0
2016-09-13T03:32:30.282Z,0
2016-09-13T03:33:30.273Z,0
2016-09-13T03:34:30.249Z,0
2016-09-13T03:35:30.240Z,0
2016-09-13T03:36:30.307Z,0
2016-09-13T03:37:30.224Z,0
2016-09-13T03:38:30.260Z,0
2016-09-13T03:39:30.295Z,0
2016-09-13T03:40:30.249Z,0
2016-09-13T03:41:30.257Z,0
2016-09-13T03:42:30.272Z,0
2016-09-13T03:43:30.235Z,0
2016-09-13T03:44:30.259Z,0
2016-09-13T03:45:30.256Z,0
2016-09-13T03:46:30.231Z,0
2016-09-13T03:47:30.237Z,0
2016-09-13T03:48:30.252Z,0
2016-09-13T03:49:30.219Z,0
2016-09-13T03:50:30.240Z,0
2016-09-13T03:51:30.260Z,0
2016-09-13T03:52:30.250Z,0
2016-09-13T03:53:30.308Z,0
2016-09-13T03:54:30.288Z,0
2016-09-13T03:55:30.253Z,0
2016-09-13T03:56:30.287Z,0
2016-09-13T03:57:30.250Z,0
2016-09-13T03:58:30.276Z,0
2016-09-13T03:59:30.260Z,0
2016-09-13T04:00:31.276Z,0
2016-09-13T04:01:30.249Z,0
2016-09-13T04:02:30.304Z,0
2016-09-13T04:03:30.301Z,0
2016-09-13T04:04:30.307Z,0
2016-09-13T04:05:30.286Z,0
2016-09-13T04:06:30.278Z,0
2016-09-13T04:07:30.256Z,0
2016-09-13T04:08:30.335Z,0
2016-09-13T04:09:30.260Z,0
2016-09-13T04:10:30.256Z,0
2016-09-13T04:11:30.256Z,0
2016-09-13T04:12:30.271Z,0
2016-09-13T04:13:30.268Z,0
2016-09-13T04:14:30.315Z,0
2016-09-13T04:15:30.265Z,0
2016-09-13T04:16:30.240Z,0
2016-09-13T04:17:30.268Z,0
2016-09-13T04:18:30.247Z,0
2016-09-13T04:19:30.291Z,0
2016-09-13T04:20:30.283Z,0
2016-09-13T04:21:30.294Z,0
2016-09-13T04:22:30.261Z,0
2016-09-13T04:23:30.269Z,0
2016-09-13T04:24:30.260Z,0
2016-09-13T04:25:30.268Z,0
2016-09-13T04:26:30.276Z,4
2016-09-13T04:27:30.292Z,4
2016-09-13T04:28:30.289Z,0
2016-09-13T04:29:30.285Z,4
2016-09-13T04:30:30.267Z,4
2016-09-13T04:31:30.275Z,4
2016-09-13T04:32:30.292Z,4
2016-09-13T04:33:30.268Z,4
2016-09-13T04:34:30.276Z,8
2016-09-13T04:35:30.284Z,8
2016-09-13T04:36:30.298Z,12
2016-09-13T04:37:30.281Z,16
2016-09-13T04:38:30.320Z,12
2016-09-13T04:39:30.307Z,20
2016-09-13T04:40:30.324Z,20
2016-09-13T04:41:30.306Z,24
2016-09-13T04:42:30.277Z,28
2016-09-13T04:43:30.286Z,36
2016-09-13T04:44:30.303Z,40
2016-09-13T04:45:30.318Z,44
2016-09-13T04:46:30.307Z,52
2016-09-13T04:47:30.314Z,60
2016-09-13T04:48:30.311Z,68
2016-09-13T04:49:30.295Z,80
2016-09-13T04:50:30.322Z,88
2016-09-13T04:51:30.292Z,100
2016-09-13T04:52:30.298Z,116
2016-09-13T04:53:30.348Z,124
2016-09-13T04:54:30.279Z,140
2016-09-13T04:55:30.319Z,156
2016-09-13T04:56:30.278Z,172
2016-09-13T04:57:30.268Z,192
2016-09-13T04:58:30.268Z,212
2016-09-13T04:59:30.286Z,232
2016-09-13T05:00:31.022Z,256
2016-09-13T05:01:30.328Z,280
2016-09-13T05:02:30.274Z,304
2016-09-13T05:03:30.284Z,328
2016-09-13T05:04:30.257Z,356
2016-09-13T05:05:30.279Z,384
2016-09-13T05:06:30.298Z,412
2016-09-13T05:07:30.302Z,444
2016-09-13T05:08:30.308Z,476
2016-09-13T05:09:30.324Z,512
2016-09-13T05:10:30.296Z,544
2016-09-13T05:11:30.335Z,584
2016-09-13T05:12:30.297Z,620
2016-09-13T05:13:30.315Z,660
2016-09-13T05:14:30.308Z,700
2016-09-13T05:15:30.315Z,740
2016-09-13T05:16:30.303Z,780
2016-09-13T05:17:30.338Z,824
2016-09-13T05:18:30.319Z,868
2016-09-13T05:19:30.325Z,912
2016-09-13T05:20:30.332Z,960
2016-09-13T05:21:30.322Z,1004
2016-09-13T05:22:30.326Z,1052
2016-09-13T05:23:30.315Z,1100
2016-09-13T05:24:30.352Z,1148
2016-09-13T05:25:30.335Z,1196
2016-09-13T05:26:30.337Z,1244
2016-09-13T05:27:30.325Z,1296
2016-09-13T05:28:30.325Z,1344
2016-09-13T05:29:30.339Z,1400
2016-09-13T05:30:30.351Z,1452
2016-09-13T05:31:39.524Z,1512
2016-09-13T05:32:30.399Z,1560
2016-09-13T05:33:30.374Z,1612
2016-09-13T05:34:30.373Z,1672
2016-09-13T05:35:30.360Z,1728
2016-09-13T05:36:30.408Z,1780
2016-09-13T05:37:30.391Z,1840
2016-09-13T05:38:30.325Z,1900
2016-09-13T05:39:30.363Z,1960
2016-09-13T05:40:30.334Z,2016
2016-09-13T05:41:30.342Z,2080
2016-09-13T05:42:30.334Z,2140
2016-09-13T05:43:30.329Z,2200
2016-09-13T05:44:30.356Z,2256
2016-09-13T05:45:30.389Z,2312
2016-09-13T05:46:30.374Z,2368
2016-09-13T05:47:30.422Z,2424
2016-09-13T05:48:30.346Z,2480
2016-09-13T05:49:30.389Z,2540
2016-09-13T05:50:30.351Z,2592
2016-09-13T05:51:30.333Z,2648
2016-09-13T05:52:30.351Z,2704
2016-09-13T05:53:30.352Z,2752
2016-09-13T05:54:30.347Z,2808
2016-09-13T05:55:30.366Z,2864
2016-09-13T05:56:30.338Z,2912
2016-09-13T05:57:30.388Z,2964
2016-09-13T05:58:30.372Z,3016
2016-09-13T05:59:30.348Z,3068
2016-09-13T06:00:30.340Z,3116
2016-09-13T06:01:30.320Z,3168
2016-09-13T06:02:30.395Z,3212
2016-09-13T06:03:30.376Z,3268
2016-09-13T06:04:30.396Z,3320
2016-09-13T06:05:30.329Z,3376
2016-09-13T06:06:30.337Z,3424
2016-09-13T06:07:30.356Z,3472
2016-09-13T06:08:30.377Z,3524
2016-09-13T06:09:30.647Z,3560
2016-09-13T06:10:30.417Z,3600
2016-09-13T06:11:30.390Z,3640
2016-09-13T06:12:30.392Z,3676
2016-09-13T06:13:30.422Z,3708
2016-09-13T06:14:30.479Z,3744
2016-09-13T06:15:30.380Z,3772
2016-09-13T06:16:30.401Z,3808
2016-09-13T06:17:30.529Z,3848
2016-09-13T06:18:30.446Z,3880
2016-09-13T06:19:30.365Z,3912
2016-09-13T06:20:30.377Z,3944
2016-09-13T06:21:30.380Z,3980
2016-09-13T06:22:30.429Z,4016
2016-09-13T06:23:30.391Z,4048
2016-09-13T06:24:30.401Z,4088
2016-09-13T06:25:30.371Z,4132
2016-09-13T06:26:30.429Z,4164
2016-09-13T06:27:30.423Z,4204
2016-09-13T06:28:30.499Z,4236
2016-09-13T06:29:30.407Z,4268
2016-09-13T06:30:30.428Z,4300
2016-09-13T06:31:30.422Z,4324
2016-09-13T06:32:30.364Z,4348
2016-09-13T06:33:30.359Z,4372
2016-09-13T06:34:30.365Z,4392
2016-09-13T06:35:30.371Z,4424
2016-09-13T06:36:30.367Z,4448
2016-09-13T06:37:30.371Z,4472
2016-09-13T06:38:30.371Z,4496
2016-09-13T06:39:30.390Z,4520
2016-09-13T06:40:30.520Z,4540
2016-09-13T06:41:30.377Z,4568
2016-09-13T06:42:30.439Z,4592
2016-09-13T06:43:30.488Z,4616
2016-09-13T06:44:30.484Z,4644
2016-09-13T06:45:30.387Z,4676
2016-09-13T06:46:30.394Z,4696
2016-09-13T06:47:30.389Z,4720
2016-09-13T06:48:30.447Z,4744
2016-09-13T06:49:30.367Z,4768
2016-09-13T06:50:30.444Z,4788
2016-09-13T06:51:30.449Z,4804
2016-09-13T06:52:30.405Z,4816
2016-09-13T06:53:30.467Z,4820
2016-09-13T06:54:30.489Z,4828
2016-09-13T06:55:30.513Z,4836
2016-09-13T06:56:30.413Z,4840
2016-09-13T06:57:30.400Z,4844
2016-09-13T06:58:30.528Z,4848
2016-09-13T06:59:30.452Z,4856
2016-09-13T07:00:30.425Z,4876
2016-09-13T07:01:30.415Z,4888
2016-09-13T07:02:30.410Z,4904
2016-09-13T07:03:30.400Z,4912
2016-09-13T07:04:30.407Z,4920
2016-09-13T07:05:30.441Z,4936
2016-09-13T07:06:30.552Z,4948
2016-09-13T07:07:30.560Z,4964
2016-09-13T07:08:30.533Z,4980
2016-09-13T07:09:30.615Z,4992
2016-09-13T07:10:30.550Z,4996
2016-09-13T07:11:30.442Z,5000
2016-09-13T07:12:30.454Z,5008
2016-09-13T07:13:30.692Z,5004
2016-09-13T07:14:30.458Z,5008
2016-09-13T07:15:30.641Z,5000
2016-09-13T07:16:30.619Z,5000
2016-09-13T07:17:30.637Z,5004
2016-09-13T07:18:30.442Z,5008
2016-09-13T07:19:30.421Z,5016
2016-09-13T07:20:30.479Z,5012
2016-09-13T07:21:30.492Z,5020
2016-09-13T07:22:30.477Z,5024
2016-09-13T07:23:30.445Z,5028
2016-09-13T07:24:30.598Z,5028
2016-09-13T07:25:30.503Z,5032
2016-09-13T07:26:31.089Z,5040
2016-09-13T07:27:30.459Z,5044
2016-09-13T07:28:31.299Z,5048
2016-09-13T07:29:30.883Z,5048
2016-09-13T07:30:30.462Z,5048
2016-09-13T07:31:30.513Z,5048
2016-09-13T07:32:30.468Z,5060
2016-09-13T07:33:30.476Z,5068
2016-09-13T07:34:31.335Z,5088
2016-09-13T07:35:30.680Z,5100
2016-09-13T07:36:30.469Z,5104
2016-09-13T07:37:31.464Z,5120
2016-09-13T07:38:30.504Z,5136
2016-09-13T07:39:30.517Z,5140
2016-09-13T07:40:30.993Z,5160
2016-09-13T07:41:30.482Z,5168
2016-09-13T07:42:30.452Z,5172
2016-09-13T07:43:30.469Z,5172
2016-09-13T07:44:31.483Z,5180
2016-09-13T07:45:31.663Z,5188
2016-09-13T07:46:31.287Z,5192
2016-09-13T07:47:30.478Z,5200
2016-09-13T07:48:30.671Z,5200
2016-09-13T07:49:30.476Z,5212
2016-09-13T07:50:30.614Z,5212
2016-09-13T07:51:30.456Z,5212
2016-09-13T07:52:30.489Z,5208
2016-09-13T07:53:30.465Z,5200
2016-09-13T07:54:30.879Z,5200
2016-09-13T07:55:30.482Z,5200
2016-09-13T07:56:30.485Z,5208
2016-09-13T07:57:30.523Z,5204
2016-09-13T07:58:30.596Z,5200
2016-09-13T07:59:30.858Z,5196
2016-09-13T08:00:30.483Z,5188
2016-09-13T08:01:30.465Z,5180
2016-09-13T08:02:30.454Z,5172
2016-09-13T08:03:30.476Z,5168
2016-09-13T08:04:30.832Z,5164
2016-09-13T08:05:30.518Z,5160
2016-09-13T08:06:30.484Z,5160
2016-09-13T08:07:30.530Z,5172
2016-09-13T08:08:31.561Z,5176
2016-09-13T08:09:30.487Z,5176
2016-09-13T08:10:30.513Z,5172
2016-09-13T08:11:30.505Z,5164
2016-09-13T08:12:30.498Z,5168
2016-09-13T08:13:30.476Z,5168
2016-09-13T08:14:30.525Z,5184
2016-09-13T08:15:30.517Z,5192
2016-09-13T08:16:30.464Z,5200
2016-09-13T08:17:30.811Z,5212
2016-09-13T08:18:30.488Z,5220
2016-09-13T08:19:30.482Z,5220
2016-09-13T08:20:30.473Z,5224
2016-09-13T08:21:30.497Z,5220
2016-09-13T08:22:30.469Z,5220
2016-09-13T08:23:30.503Z,5224
2016-09-13T08:24:30.662Z,5228
2016-09-13T08:25:30.600Z,5232
2016-09-13T08:26:30.717Z,5244
2016-09-13T08:27:30.512Z,5244
2016-09-13T08:28:30.541Z,5252
2016-09-13T08:29:30.562Z,5256
2016-09-13T08:30:30.541Z,5260
2016-09-13T08:31:30.832Z,5256
2016-09-13T08:32:30.532Z,5252
2016-09-13T08:33:30.813Z,5244
2016-09-13T08:34:30.536Z,5240
2016-09-13T08:35:30.534Z,5236
2016-09-13T08:36:30.525Z,5236
2016-09-13T08:37:30.922Z,5232
2016-09-13T08:38:30.509Z,5232
2016-09-13T08:39:30.576Z,5232
2016-09-13T08:40:30.720Z,5232
2016-09-13T08:41:30.625Z,5224
2016-09-13T08:42:30.597Z,5212
2016-09-13T08:43:30.540Z,5204
2016-09-13T08:44:30.856Z,5200
2016-09-13T08:45:30.554Z,5200
2016-09-13T08:46:30.574Z,5200
2016-09-13T08:47:30.606Z,5192
2016-09-13T08:48:30.557Z,5192
2016-09-13T08:49:30.573Z,5200
2016-09-13T08:50:30.527Z,5204
2016-09-13T08:51:30.568Z,5208
2016-09-13T08:52:30.740Z,5220
2016-09-13T08:53:30.617Z,5216
2016-09-13T08:54:30.758Z,5220
2016-09-13T08:55:30.582Z,5220
2016-09-13T08:56:30.542Z,5216
2016-09-13T08:57:30.538Z,5216
2016-09-13T08:58:30.576Z,5208
2016-09-13T08:59:30.892Z,5212
2016-09-13T09:00:30.582Z,5204
2016-09-13T09:01:30.554Z,5196
2016-09-13T09:02:30.589Z,5184
2016-09-13T09:03:30.697Z,5176
2016-09-13T09:04:30.582Z,5160
2016-09-13T09:05:30.578Z,5140
2016-09-13T09:06:30.812Z,5120
2016-09-13T09:07:30.634Z,5096
2016-09-13T09:08:30.564Z,5068
2016-09-13T09:09:30.579Z,5048
2016-09-13T09:10:30.813Z,5036
2016-09-13T09:11:30.605Z,5020
2016-09-13T09:12:30.588Z,5008
2016-09-13T09:13:30.606Z,5008
2016-09-13T09:14:30.596Z,4996
2016-09-13T09:15:30.572Z,4988
2016-09-13T09:16:30.689Z,4976
2016-09-13T09:17:30.717Z,4968
2016-09-13T09:18:30.583Z,4952
2016-09-13T09:19:30.658Z,4944
2016-09-13T09:20:30.651Z,4944
2016-09-13T09:21:30.655Z,4936
2016-09-13T09:22:30.579Z,4920
2016-09-13T09:23:30.617Z,4904
2016-09-13T09:24:30.679Z,4892
2016-09-13T09:25:30.575Z,4880
2016-09-13T09:26:30.622Z,4872
2016-09-13T09:27:30.610Z,4864
2016-09-13T09:28:30.604Z,4852
2016-09-13T09:29:30.615Z,4844
2016-09-13T09:30:30.671Z,4836
2016-09-13T09:31:30.688Z,4820
2016-09-13T09:32:30.593Z,4792
2016-09-13T09:33:30.733Z,4764
2016-09-13T09:34:30.607Z,4748
2016-09-13T09:35:30.587Z,4716
2016-09-13T09:36:31.573Z,4684
2016-09-13T09:37:30.670Z,4660
2016-09-13T09:38:30.624Z,4628
2016-09-13T09:39:30.583Z,4596
2016-09-13T09:40:30.596Z,4564
2016-09-13T09:41:30.768Z,4536
2016-09-13T09:42:30.612Z,4508
2016-09-13T09:43:30.713Z,4484
2016-09-13T09:44:30.606Z,4460
2016-09-13T09:45:30.654Z,4436
2016-09-13T09:46:30.632Z,4420
2016-09-13T09:47:30.609Z,4404
2016-09-13T09:48:30.730Z,4384
2016-09-13T09:49:30.605Z,4360
2016-09-13T09:50:30.627Z,4336
2016-09-13T09:51:30.642Z,4320
2016-09-13T09:52:30.627Z,4296
2016-09-13T09:53:30.696Z,4272
2016-09-13T09:54:30.603Z,4252
2016-09-13T09:55:30.647Z,4236
2016-09-13T09:56:30.662Z,4216
2016-09-13T09:57:30.670Z,4196
2016-09-13T09:58:30.661Z,4180
2016-09-13T09:59:30.672Z,4168
2016-09-13T10:00:30.635Z,4152
2016-09-13T10:01:30.594Z,4140
2016-09-13T10:02:30.617Z,4128
2016-09-13T10:03:30.645Z,4108
2016-09-13T10:04:30.690Z,4092
2016-09-13T10:05:30.680Z,4068
2016-09-13T10:06:30.602Z,4056
2016-09-13T10:07:30.609Z,4048
2016-09-13T10:08:30.660Z,4044
2016-09-13T10:09:30.751Z,4032
2016-09-13T10:10:30.613Z,4028
2016-09-13T10:11:30.632Z,4028
2016-09-13T10:12:30.657Z,4020
2016-09-13T10:13:30.725Z,4020
2016-09-13T10:14:30.605Z,4020
2016-09-13T10:15:30.639Z,4012
2016-09-13T10:16:30.852Z,4008
2016-09-13T10:17:30.639Z,4008
2016-09-13T10:18:30.636Z,4008
2016-09-13T10:19:30.689Z,4012
2016-09-13T10:20:30.638Z,4016
2016-09-13T10:21:30.658Z,4020
2016-09-13T10:22:30.657Z,4012
2016-09-13T10:23:30.674Z,4000
2016-09-13T10:24:30.641Z,3984
2016-09-13T10:25:30.665Z,3980
2016-09-13T10:26:30.663Z,3992
2016-09-13T10:27:30.747Z,3996
2016-09-13T10:28:30.718Z,3992
2016-09-13T10:29:30.652Z,3996
2016-09-13T10:30:30.655Z,3988
2016-09-13T10:31:30.651Z,3980
2016-09-13T10:32:30.736Z,3976
2016-09-13T10:33:30.636Z,3980
2016-09-13T10:34:30.659Z,3984
2016-09-13T10:35:30.703Z,3980
2016-09-13T10:36:30.656Z,3980
2016-09-13T10:37:30.652Z,3976
2016-09-13T10:38:30.658Z,3980
2016-09-13T10:39:30.818Z,3980
2016-09-13T10:40:30.684Z,3980
2016-09-13T10:41:30.672Z,3984
2016-09-13T10:42:30.646Z,4000
2016-09-13T10:43:30.697Z,4000
2016-09-13T10:44:30.677Z,4004
2016-09-13T10:45:30.665Z,3996
2016-09-13T10:46:30.661Z,3996
2016-09-13T10:47:30.698Z,3996
2016-09-13T10:48:30.640Z,4008
2016-09-13T10:49:30.671Z,4012
2016-09-13T10:50:30.678Z,4024
2016-09-13T10:51:30.860Z,4040
2016-09-13T10:52:30.806Z,4044
2016-09-13T10:53:30.687Z,4048
2016-09-13T10:54:30.687Z,4048
2016-09-13T10:55:30.687Z,4048
2016-09-13T10:56:30.795Z,4052
2016-09-13T10:57:30.678Z,4052
2016-09-13T10:58:30.675Z,4060
2016-09-13T10:59:30.672Z,4064
2016-09-13T11:00:30.675Z,4080
2016-09-13T11:01:30.686Z,4100
2016-09-13T11:02:30.702Z,4100
2016-09-13T11:03:30.828Z,4100
2016-09-13T11:04:30.707Z,4092
2016-09-13T11:05:30.679Z,4096
2016-09-13T11:06:30.730Z,4096
2016-09-13T11:07:30.692Z,4112
2016-09-13T11:08:30.751Z,4108
2016-09-13T11:09:30.693Z,4092
2016-09-13T11:10:30.678Z,4080
2016-09-13T11:11:30.690Z,4076
2016-09-13T11:12:30.682Z,4080
2016-09-13T11:13:30.697Z,4080
2016-09-13T11:14:30.691Z,4084
2016-09-13T11:15:30.676Z,4092
2016-09-13T11:16:30.729Z,4100
2016-09-13T11:17:30.685Z,4100
2016-09-13T11:18:30.713Z,4112
2016-09-13T11:19:30.731Z,4116
2016-09-13T11:20:31.969Z,4104
2016-09-13T11:21:30.736Z,4096
2016-09-13T11:22:30.724Z,4100
2016-09-13T11:23:31.344Z,4084
2016-09-13T11:24:30.740Z,4068
2016-09-13T11:25:30.748Z,4056
2016-09-13T11:26:30.717Z,4056
2016-09-13T11:27:30.724Z,4056
2016-09-13T11:28:30.730Z,4052
2016-09-13T11:29:30.801Z,4056
2016-09-13T11:30:30.762Z,4036
2016-09-13T11:31:30.754Z,4020
2016-09-13T11:32:30.821Z,4024
2016-09-13T11:33:30.728Z,4032
2016-09-13T11:34:30.769Z,4020
2016-09-13T11:35:30.808Z,4012
2016-09-13T11:36:30.739Z,4016
2016-09-13T11:37:30.743Z,3996
2016-09-13T11:38:30.750Z,3976
2016-09-13T11:39:30.957Z,3960
2016-09-13T11:40:30.714Z,3960
2016-09-13T11:41:30.766Z,3964
2016-09-13T11:42:30.726Z,3964
2016-09-13T11:43:30.719Z,3960
2016-09-13T11:44:30.711Z,3952
2016-09-13T11:45:30.704Z,3944
2016-09-13T11:46:30.769Z,3948
2016-09-13T11:47:30.743Z,3944
2016-09-13T11:48:30.766Z,3924
2016-09-13T11:49:30.742Z,3912
2016-09-13T11:50:31.462Z,3916
2016-09-13T11:51:30.948Z,3916
2016-09-13T11:52:30.733Z,3908
2016-09-13T11:53:30.880Z,3904
2016-09-13T11:54:30.777Z,3900
2016-09-13T11:55:30.700Z,3908
2016-09-13T11:56:30.721Z,3916
2016-09-13T11:57:30.767Z,3920
2016-09-13T11:58:30.773Z,3920
2016-09-13T11:59:30.763Z,3908
2016-09-13T12:00:30.944Z,3900
2016-09-13T12:01:30.783Z,3900
2016-09-13T12:02:30.922Z,3904
2016-09-13T12:03:30.855Z,3888
2016-09-13T12:04:30.817Z,3884
2016-09-13T12:05:30.753Z,3884
2016-09-13T12:06:30.724Z,3876
2016-09-13T12:07:30.772Z,3880
2016-09-13T12:08:30.722Z,3868
2016-09-13T12:09:30.750Z,3860
2016-09-13T12:10:30.765Z,3844
2016-09-13T12:11:30.755Z,3836
2016-09-13T12:12:30.983Z,3836
2016-09-13T12:13:30.764Z,3828
2016-09-13T12:14:30.777Z,3828
2016-09-13T12:15:32.294Z,3836
2016-09-13T12:17:15.175Z,3844
2016-09-13T12:17:30.764Z,3844
2016-09-13T12:18:30.868Z,3848
2016-09-13T12:19:30.736Z,3840
2016-09-13T12:20:30.773Z,3804
2016-09-13T12:21:30.774Z,3764
2016-09-13T12:22:30.795Z,3728
2016-09-13T12:23:30.787Z,3720
2016-09-13T12:24:30.771Z,3716
2016-09-13T12:25:30.836Z,3716
2016-09-13T12:26:30.764Z,3720
2016-09-13T12:27:30.763Z,3720
2016-09-13T12:28:30.808Z,3716
2016-09-13T12:29:30.890Z,3696
2016-09-13T12:30:30.814Z,3676
2016-09-13T12:31:30.765Z,3668
2016-09-13T12:32:30.966Z,3668
2016-09-13T12:33:31.262Z,3672
2016-09-13T12:34:30.876Z,3688
2016-09-13T12:35:30.808Z,3696
2016-09-13T12:36:30.836Z,3688
2016-09-13T12:37:30.983Z,3680
2016-09-13T12:38:30.866Z,3656
2016-09-13T12:39:30.798Z,3620
2016-09-13T12:40:31.241Z,3592
2016-09-13T12:41:30.896Z,3572
2016-09-13T12:42:30.768Z,3548
2016-09-13T12:43:30.836Z,3524
2016-09-13T12:44:31.530Z,3512
2016-09-13T12:45:30.846Z,3504
2016-09-13T12:46:30.844Z,3496
2016-09-13T12:47:30.903Z,3480
2016-09-13T12:48:30.797Z,3476
2016-09-13T12:49:30.960Z,3476
2016-09-13T12:50:31.903Z,3476
2016-09-13T12:51:30.841Z,3476
2016-09-13T12:52:30.810Z,3484
2016-09-13T12:53:30.835Z,3492
2016-09-13T12:54:30.811Z,3504
2016-09-13T12:55:30.824Z,3492
2016-09-13T12:56:30.860Z,3492
2016-09-13T12:57:30.940Z,3500
2016-09-13T12:58:30.830Z,3496
2016-09-13T12:59:31.004Z,3484
2016-09-13T13:00:30.985Z,3492
2016-09-13T13:01:30.969Z,3480
2016-09-13T13:02:30.837Z,3464
2016-09-13T13:03:30.831Z,3444
2016-09-13T13:04:30.931Z,3440
2016-09-13T13:05:30.843Z,3424
2016-09-13T13:06:30.837Z,3416
2016-09-13T13:07:30.798Z,3416
2016-09-13T13:08:30.853Z,3420
2016-09-13T13:09:30.821Z,3432
2016-09-13T13:10:30.915Z,3440
2016-09-13T13:11:34.654Z,3428
2016-09-13T13:12:57.278Z,3404
2016-09-13T13:13:51.081Z,3392
2016-09-13T13:14:30.850Z,3388
2016-09-13T13:15:30.862Z,3392
2016-09-13T13:16:30.852Z,3416
2016-09-13T13:17:30.835Z,3436
2016-09-13T13:18:30.837Z,3440
2016-09-13T13:19:31.068Z,3448
2016-09-13T13:20:30.823Z,3448
2016-09-13T13:21:30.806Z,3456
2016-09-13T13:22:30.897Z,3460
2016-09-13T13:23:30.981Z,3464
2016-09-13T13:24:30.842Z,3480
2016-09-13T13:25:30.980Z,3500
2016-09-13T13:26:30.878Z,3512
2016-09-13T13:27:30.834Z,3520
2016-09-13T13:28:31.267Z,3516
2016-09-13T13:29:30.817Z,3512
2016-09-13T13:30:30.960Z,3508
2016-09-13T13:31:31.017Z,3512
2016-09-13T13:32:30.884Z,3500
2016-09-13T13:33:30.931Z,3496
2016-09-13T13:34:30.847Z,3488
2016-09-13T13:35:30.905Z,3500
2016-09-13T13:36:30.922Z,3520
2016-09-13T13:37:30.861Z,3520
2016-09-13T13:38:30.832Z,3504
2016-09-13T13:39:30.879Z,3504
2016-09-13T13:40:31.160Z,3516
2016-09-13T13:41:30.879Z,3532
2016-09-13T13:42:31.040Z,3544
2016-09-13T13:43:30.945Z,3540
2016-09-13T13:44:31.042Z,3536
2016-09-13T13:45:30.957Z,3540
2016-09-13T13:46:30.919Z,3548
2016-09-13T13:47:30.864Z,3564
2016-09-13T13:48:30.913Z,3568